Time;durP1;ratioP1;P1;durP2;ratioP2;P2;SDS_P1;SDS_P2;PMS_P1;PMS_P2;Temp;Humidity;BMP_temperature;BMP_pressure;BME280_temperature;BME280_humidity;BME280_pressure;Samples;Min_cycle;Max_cycle;Signal;HPM_P1;HPM_P2
2022/01/21 00:00:56;;;;;;;3.97;0.85;;;;;;;-1.30;75.29;102033.16;5000145;28;22116;-50
2022/01/21 00:03:21;;;;;;;4.25;1.42;;;;;;;-1.33;75.27;102026.38;5001653;28;20034;-51
2022/01/21 00:05:47;;;;;;;5.97;1.38;;;;;;;-1.27;75.23;102030.22;4995761;28;20033;-47
2022/01/21 00:08:12;;;;;;;9.07;1.58;;;;;;;-1.20;74.78;102026.09;4982793;28;20026;-47
2022/01/21 00:10:38;;;;;;;1.88;0.85;;;;;;;-1.23;74.88;102026.38;5000176;28;20040;-48
2022/01/21 00:13:14;;;;;;;5.25;1.10;;;;;;;-1.14;75.04;102032.59;4998195;28;20491;-48
2022/01/21 00:15:39;;;;;;;4.85;1.02;;;;;;;-1.24;75.11;102033.44;4999383;28;20072;-49
2022/01/21 00:18:07;;;;;;;4.05;1.15;;;;;;;-1.19;74.75;102037.44;4998115;28;20033;-47
2022/01/21 00:31:29;;;;;;;8.75;0.98;;;;;;;-1.17;74.74;102046.00;4999137;28;20886;-48
2022/01/21 00:33:54;;;;;;;2.47;0.60;;;;;;;-1.11;74.57;102051.53;4999474;28;20471;-47
2022/01/21 00:36:19;;;;;;;7.07;1.02;;;;;;;-1.08;74.35;102051.25;4999460;28;20034;-47
2022/01/21 00:38:45;;;;;;;6.15;1.10;;;;;;;-0.99;74.40;102052.22;4999367;28;20224;-47
2022/01/21 00:41:11;;;;;;;1.17;0.43;;;;;;;-0.96;73.99;102046.69;4999490;28;20030;-47
2022/01/21 00:43:44;;;;;;;6.05;0.75;;;;;;;-1.00;73.56;102053.19;5000194;28;20057;-50
2022/01/21 00:46:11;;;;;;;1.98;0.80;;;;;;;-0.96;73.58;102050.13;4980262;28;20026;-49
2022/01/21 00:48:36;;;;;;;7.18;1.00;;;;;;;-0.95;73.48;102051.78;4998568;28;20029;-50
2022/01/21 00:51:02;;;;;;;3.05;1.48;;;;;;;-0.88;73.40;102046.00;4999262;28;20123;-51
2022/01/21 00:53:27;;;;;;;5.90;0.98;;;;;;;-0.88;73.19;102049.44;4996212;28;20033;-51
2022/01/21 00:55:53;;;;;;;6.70;1.13;;;;;;;-0.85;73.07;102048.34;4998684;28;20052;-49
2022/01/21 00:58:19;;;;;;;4.25;1.58;;;;;;;-0.85;73.16;102048.34;5002304;28;20119;-51
2022/01/21 01:00:44;;;;;;;3.28;0.60;;;;;;;-0.80;73.20;102051.38;4996643;28;20030;-50
2022/01/21 01:03:10;;;;;;;3.70;1.23;;;;;;;-0.74;73.13;102063.94;4998072;28;20217;-50
2022/01/21 01:05:36;;;;;;;2.88;1.13;;;;;;;-0.75;72.94;102064.91;4999044;28;20080;-50
2022/01/21 01:08:03;;;;;;;6.80;1.10;;;;;;;-0.74;72.47;102072.66;5000012;28;20034;-51
2022/01/21 01:21:34;;;;;;;8.47;0.90;;;;;;;-0.71;71.87;102074.22;5000000;28;20454;-47
2022/01/21 01:29:32;;;;;;;3.37;1.43;;;;;;;-0.70;71.61;102081.13;4999385;28;20145;-49
2022/01/21 01:31:58;;;;;;;4.35;0.98;;;;;;;-0.65;71.44;102099.97;4999669;28;20511;-51
2022/01/21 01:34:23;;;;;;;2.85;0.85;;;;;;;-0.65;71.20;102092.06;4996276;28;20109;-50
2022/01/21 01:36:49;;;;;;;2.25;0.80;;;;;;;-0.62;70.63;102099.66;4999181;28;20022;-47
2022/01/21 01:39:28;;;;;;;6.43;1.00;;;;;;;-0.61;70.74;102091.63;4996362;28;20549;-48
2022/01/21 01:42:16;;;;;;;3.20;0.95;;;;;;;-0.64;70.37;102085.81;4998892;28;20380;-48
2022/01/21 01:50:27;;;;;;;3.33;0.70;;;;;;;-0.73;70.36;102094.56;4998116;28;20040;-48
2022/01/21 01:52:53;;;;;;;3.13;0.70;;;;;;;-0.74;70.16;102093.72;4985341;28;20026;-52
2022/01/21 01:55:19;;;;;;;4.05;1.00;;;;;;;-0.71;70.73;102095.28;4997694;28;20643;-48
2022/01/21 01:57:45;;;;;;;4.45;0.75;;;;;;;-0.74;70.53;102090.25;4999197;28;20495;-48
2022/01/21 02:00:11;;;;;;;7.05;0.90;;;;;;;-0.81;70.27;102091.81;4998657;28;20029;-49
2022/01/21 02:02:36;;;;;;;4.32;0.90;;;;;;;-0.81;70.27;102097.06;4998450;28;20115;-49
2022/01/21 02:05:02;;;;;;;4.75;0.90;;;;;;;-0.84;70.01;102098.19;4998899;28;20244;-48
2022/01/21 02:07:27;;;;;;;4.75;1.10;;;;;;;-0.86;69.82;102101.94;4994988;28;20034;-48
2022/01/21 02:09:53;;;;;;;1.02;0.70;;;;;;;-0.82;69.87;102092.78;5000191;28;20568;-50
2022/01/21 02:12:18;;;;;;;3.42;0.70;;;;;;;-0.80;70.43;102096.09;4998107;28;20037;-49
2022/01/21 02:14:49;;;;;;;3.05;0.82;;;;;;;-0.80;70.10;102102.19;5001530;28;20156;-48
2022/01/21 02:21:29;;;;;;;3.22;0.68;;;;;;;-0.84;69.43;102095.56;4995133;28;20038;-48
2022/01/21 02:22:50;;;;;;;4.22;0.90;;;;;;;-0.86;69.86;102107.19;4993590;28;20061;-51
2022/01/21 02:25:18;;;;;;;4.55;1.20;;;;;;;-0.93;69.38;102109.53;4995110;28;20395;-51
2022/01/21 02:27:52;;;;;;;3.40;0.75;;;;;;;-0.89;69.60;102113.56;4995967;28;20022;-48
2022/01/21 02:30:20;;;;;;;5.73;0.83;;;;;;;-0.88;69.70;102109.13;4997875;28;20442;-50
2022/01/21 02:32:52;;;;;;;4.35;1.17;;;;;;;-0.88;70.01;102117.03;4996149;28;20436;-49
2022/01/21 02:35:18;;;;;;;4.55;0.63;;;;;;;-0.89;69.57;102123.28;4994335;28;20124;-48
2022/01/21 02:37:44;;;;;;;4.03;1.00;;;;;;;-0.89;69.44;102118.00;4996021;28;20034;-50
2022/01/21 02:40:11;;;;;;;8.20;1.50;;;;;;;-0.85;69.45;102128.09;4996577;28;20033;-51
2022/01/21 02:42:37;;;;;;;5.03;1.15;;;;;;;-0.80;69.92;102139.03;4999112;28;20033;-50
2022/01/21 02:45:05;;;;;;;3.10;0.80;;;;;;;-0.86;69.58;102134.34;4999675;28;20399;-51
2022/01/21 02:47:31;;;;;;;4.85;1.80;;;;;;;-0.86;69.60;102133.50;4998309;28;20026;-49
2022/01/21 02:49:56;;;;;;;2.22;0.75;;;;;;;-0.90;69.57;102127.66;4999749;28;20069;-48
2022/01/21 02:52:25;;;;;;;7.60;0.90;;;;;;;-0.81;69.61;102132.13;4997610;28;20790;-50
2022/01/21 02:54:51;;;;;;;4.18;0.90;;;;;;;-0.84;69.38;102131.56;4999374;28;20495;-49
2022/01/21 02:57:17;;;;;;;2.00;0.80;;;;;;;-0.86;69.84;102136.13;4997386;28;20031;-49
2022/01/21 02:59:42;;;;;;;4.07;0.73;;;;;;;-0.93;69.47;102134.03;4997383;28;20032;-51
2022/01/21 03:02:08;;;;;;;4.80;1.20;;;;;;;-0.83;69.56;102130.59;5002068;28;20454;-50
2022/01/21 03:06:59;;;;;;;4.63;1.33;;;;;;;-0.87;69.63;102135.31;4997451;28;20048;-51
2022/01/21 03:09:25;;;;;;;4.85;0.77;;;;;;;-0.86;69.49;102138.78;4995316;28;20044;-49
2022/01/21 03:11:50;;;;;;;3.95;0.88;;;;;;;-0.82;69.40;102150.66;4997948;28;20460;-48
2022/01/21 03:14:16;;;;;;;3.90;1.13;;;;;;;-0.86;69.43;102155.38;4994058;28;20458;-48
2022/01/21 03:16:41;;;;;;;6.68;1.13;;;;;;;-0.84;69.52;102147.34;4997612;28;20033;-51
2022/01/21 03:19:07;;;;;;;7.45;1.23;;;;;;;-0.82;69.74;102150.66;4996924;28;20033;-51
2022/01/21 03:21:32;;;;;;;4.75;1.13;;;;;;;-0.79;69.54;102158.28;5000878;28;20127;-48
2022/01/21 03:23:58;;;;;;;3.55;0.88;;;;;;;-0.82;69.59;102155.94;4996952;28;20415;-53
2022/01/21 03:26:26;;;;;;;6.72;1.08;;;;;;;-0.82;69.55;102155.94;4999837;28;20026;-48
2022/01/21 03:28:57;;;;;;;4.85;0.77;;;;;;;-0.84;69.69;102163.97;5001584;28;20452;-49
2022/01/21 03:31:24;;;;;;;2.78;0.82;;;;;;;-0.87;69.96;102160.78;5000526;28;21403;-51
2022/01/21 03:33:50;;;;;;;6.13;1.30;;;;;;;-0.93;69.63;102151.63;4995324;28;20459;-51
2022/01/21 03:36:16;;;;;;;4.07;1.63;;;;;;;-0.85;69.82;102159.69;4995279;28;20585;-52
2022/01/21 03:38:42;;;;;;;3.13;0.93;;;;;;;-0.88;69.83;102161.75;5003008;28;20091;-48
2022/01/21 03:41:07;;;;;;;2.40;1.10;;;;;;;-0.85;69.69;102153.59;4999213;28;20022;-50
2022/01/21 03:43:33;;;;;;;6.13;1.42;;;;;;;-0.86;69.53;102144.88;4999285;28;20030;-51
2022/01/21 03:45:59;;;;;;;5.53;1.90;;;;;;;-0.85;69.99;102146.53;5000844;28;20041;-50
2022/01/21 03:48:26;;;;;;;4.00;1.17;;;;;;;-0.87;69.98;102143.22;4998855;28;20251;-52
2022/01/21 03:50:52;;;;;;;4.18;1.30;;;;;;;-0.83;70.10;102134.06;5015366;22;20521;-47
2022/01/21 03:53:17;;;;;;;5.07;1.08;;;;;;;-0.84;69.83;102139.47;5006067;28;20029;-47
2022/01/21 03:55:44;;;;;;;4.40;0.93;;;;;;;-0.83;69.53;102133.22;5006056;28;20471;-47
2022/01/21 03:58:10;;;;;;;5.78;1.65;;;;;;;-0.88;69.85;102133.66;5005695;28;20045;-47
2022/01/21 04:00:41;;;;;;;5.28;1.27;;;;;;;-0.81;69.66;102136.53;5007207;28;20108;-47
2022/01/21 04:03:07;;;;;;;5.10;1.00;;;;;;;-0.85;69.32;102140.44;5007200;28;20081;-47
2022/01/21 04:05:34;;;;;;;4.45;1.10;;;;;;;-0.85;69.49;102133.38;5003150;28;20033;-47
2022/01/21 04:08:00;;;;;;;8.50;1.45;;;;;;;-0.85;69.82;102141.25;5007677;28;20478;-47
2022/01/21 04:10:26;;;;;;;5.40;1.52;;;;;;;-0.86;69.46;102144.88;5006544;28;20061;-48
2022/01/21 04:12:52;;;;;;;6.82;1.20;;;;;;;-0.86;70.06;102149.31;5005934;28;20061;-47
2022/01/21 04:15:17;;;;;;;4.88;1.23;;;;;;;-0.91;69.49;102147.88;5006578;28;20018;-49
2022/01/21 04:17:43;;;;;;;3.97;0.90;;;;;;;-0.87;69.77;102147.63;5006709;28;20021;-47
2022/01/21 04:20:12;;;;;;;4.93;1.08;;;;;;;-0.82;70.01;102145.41;5004735;28;20038;-48
2022/01/21 04:22:37;;;;;;;5.30;1.05;;;;;;;-0.91;69.81;102149.69;5006592;28;20029;-48
2022/01/21 04:25:04;;;;;;;8.52;1.08;;;;;;;-0.87;69.75;102152.91;5006514;28;20034;-48
2022/01/21 04:27:30;;;;;;;7.80;1.83;;;;;;;-0.89;69.39;102155.66;5006866;28;20034;-47
2022/01/21 04:29:56;;;;;;;4.05;0.80;;;;;;;-0.92;69.57;102148.84;5006290;28;20483;-47
2022/01/21 04:32:21;;;;;;;3.45;0.93;;;;;;;-0.85;69.87;102154.41;5009377;28;20108;-47
2022/01/21 04:34:47;;;;;;;4.75;0.88;;;;;;;-0.82;69.87;102169.09;5008821;28;20041;-47
2022/01/21 04:37:14;;;;;;;5.78;0.90;;;;;;;-0.79;69.98;102168.81;5009570;28;20479;-47
2022/01/21 04:39:48;;;;;;;2.45;0.60;;;;;;;-0.81;69.62;102165.50;5010071;28;20133;-48
2022/01/21 04:47:31;;;;;;;5.20;1.40;;;;;;;-0.72;69.39;102169.91;5009580;28;20146;-47
2022/01/21 04:49:57;;;;;;;9.00;1.10;;;;;;;-0.70;69.16;102170.63;5023498;28;20120;-48
2022/01/21 04:52:24;;;;;;;4.28;0.80;;;;;;;-0.75;69.27;102162.28;5007674;28;20152;-47
2022/01/21 04:54:51;;;;;;;5.22;0.75;;;;;;;-0.77;69.27;102159.81;5010045;28;20033;-47
2022/01/21 04:57:17;;;;;;;3.92;1.20;;;;;;;-0.77;69.02;102164.22;5009363;28;20036;-47
2022/01/21 04:59:43;;;;;;;7.95;1.55;;;;;;;-0.78;69.08;102170.47;5008815;28;20033;-47
2022/01/21 05:02:09;;;;;;;5.43;1.10;;;;;;;-0.79;69.08;102166.19;5009471;28;20049;-48
2022/01/21 05:04:36;;;;;;;2.15;0.63;;;;;;;-0.79;68.62;102174.91;5008775;28;20041;-47
2022/01/21 05:07:04;;;;;;;3.63;0.90;;;;;;;-0.80;68.76;102169.78;5009157;28;20029;-47
2022/01/21 05:09:32;;;;;;;3.30;0.55;;;;;;;-0.72;68.94;102177.81;5024619;28;20033;-47
2022/01/21 05:12:00;;;;;;;3.75;1.00;;;;;;;-0.81;67.85;102173.38;4998380;28;20096;-47
2022/01/21 05:14:46;;;;;;;3.85;1.27;;;;;;;-0.79;68.35;102167.00;5005928;28;20055;-48
2022/01/21 05:17:13;;;;;;;6.03;1.05;;;;;;;-0.75;68.29;102178.09;5006610;28;20030;-47
2022/01/21 05:19:38;;;;;;;0.80;0.80;;;;;;;-0.72;68.19;102164.66;5007761;28;20079;-47
2022/01/21 05:22:05;;;;;;;4.45;1.15;;;;;;;-0.70;67.78;102165.34;5004554;28;20065;-47
2022/01/21 05:24:30;;;;;;;3.08;0.80;;;;;;;-0.70;68.21;102163.56;5007913;28;20068;-47
2022/01/21 05:26:58;;;;;;;6.72;1.05;;;;;;;-0.77;67.54;102172.97;5007227;28;20050;-47
2022/01/21 05:29:30;;;;;;;3.55;1.00;;;;;;;-0.78;67.11;102175.75;5007029;28;20387;-47
2022/01/21 05:31:56;;;;;;;7.30;0.90;;;;;;;-0.83;67.20;102173.53;5004499;28;20038;-48
2022/01/21 05:34:22;;;;;;;1.23;0.60;;;;;;;-0.88;66.88;102167.84;5006397;28;20032;-47
2022/01/21 05:36:48;;;;;;;1.33;0.60;;;;;;;-0.85;67.60;102172.00;5014075;28;20263;-47
2022/01/21 05:39:16;;;;;;;6.93;1.00;;;;;;;-0.87;66.96;102163.44;5006152;28;20116;-48
2022/01/21 05:41:49;;;;;;;3.50;0.70;;;;;;;-0.89;67.21;102162.72;5007651;28;20107;-47
2022/01/21 05:47:04;;;;;;;2.13;0.57;;;;;;;-1.00;66.61;102159.25;4982663;28;20065;-47
2022/01/21 05:49:32;;;;;;;1.92;0.60;;;;;;;-0.98;67.18;102165.22;5007725;28;20471;-47
2022/01/21 05:52:19;;;;;;;1.40;0.55;;;;;;;-0.96;66.89;102171.16;5004036;28;20076;-47
2022/01/21 05:54:46;;;;;;;2.67;0.70;;;;;;;-0.99;66.27;102167.97;5006376;28;20390;-47
2022/01/21 05:57:14;;;;;;;3.65;0.80;;;;;;;-1.04;66.69;102180.72;5006776;28;20030;-47
2022/01/21 05:59:40;;;;;;;2.13;0.77;;;;;;;-1.10;66.58;102179.44;5004945;28;20033;-47
2022/01/21 06:02:07;;;;;;;3.45;0.50;;;;;;;-1.16;66.32;102173.91;5006043;28;20034;-47
2022/01/21 06:04:33;;;;;;;2.13;1.13;;;;;;;-1.20;66.46;102188.31;5004618;28;20044;-49
2022/01/21 06:07:00;;;;;;;1.75;0.70;;;;;;;-1.19;66.67;102188.19;5003355;28;20033;-47
2022/01/21 06:09:27;;;;;;;2.72;0.80;;;;;;;-1.18;66.55;102181.13;5005007;28;20038;-47
2022/01/21 06:11:52;;;;;;;4.43;0.75;;;;;;;-1.19;67.00;102193.44;5006831;28;20486;-47
2022/01/21 06:14:18;;;;;;;2.05;0.70;;;;;;;-1.25;67.05;102186.94;5005919;28;20029;-47
2022/01/21 06:16:44;;;;;;;6.05;0.82;;;;;;;-1.26;67.43;102187.91;5007611;28;20032;-47
2022/01/21 06:19:09;;;;;;;2.45;0.47;;;;;;;-1.40;67.11;102198.78;5007987;28;20033;-47
2022/01/21 06:21:35;;;;;;;4.90;1.40;;;;;;;-1.40;67.49;102193.53;5009000;28;20292;-47
2022/01/21 06:24:00;;;;;;;8.52;1.15;;;;;;;-1.40;68.32;102195.34;5007892;28;20437;-47
2022/01/21 06:26:26;;;;;;;6.13;1.00;;;;;;;-1.45;68.12;102189.63;5007629;28;21346;-47
2022/01/21 06:28:51;;;;;;;2.80;0.82;;;;;;;-1.49;68.90;102190.88;5007493;28;20022;-47
2022/01/21 06:31:17;;;;;;;2.42;0.70;;;;;;;-1.50;69.08;102187.41;5007834;28;20029;-48
2022/01/21 06:33:42;;;;;;;3.13;0.80;;;;;;;-1.54;69.32;102191.28;5008339;28;20032;-47
2022/01/21 06:36:08;;;;;;;2.95;0.90;;;;;;;-1.56;69.52;102186.16;5007551;28;20322;-47
2022/01/21 06:38:35;;;;;;;5.05;1.02;;;;;;;-1.60;70.37;102197.91;5005330;28;20053;-47
2022/01/21 06:41:02;;;;;;;4.22;1.00;;;;;;;-1.59;70.08;102207.44;5007100;28;20502;-46
2022/01/21 06:43:27;;;;;;;5.03;1.27;;;;;;;-1.62;70.79;102205.06;5008061;28;20037;-47
2022/01/21 06:45:53;;;;;;;5.20;0.80;;;;;;;-1.64;70.55;102201.75;5023141;28;20467;-47
2022/01/21 06:48:19;;;;;;;5.97;0.88;;;;;;;-1.67;71.12;102209.88;5005848;28;20030;-47
2022/01/21 06:50:44;;;;;;;3.00;1.73;;;;;;;-1.72;71.37;102212.09;5006792;28;20193;-47
2022/01/21 06:53:10;;;;;;;3.80;0.80;;;;;;;-1.70;71.73;102219.84;5007669;28;20033;-47
2022/01/21 06:55:36;;;;;;;3.55;1.08;;;;;;;-1.70;71.35;102218.03;5006599;28;20463;-47
2022/01/21 06:58:03;;;;;;;7.65;1.42;;;;;;;-1.77;72.33;102211.66;5007318;28;20041;-47
2022/01/21 07:00:28;;;;;;;2.65;1.05;;;;;;;-1.73;71.89;102223.56;5006914;28;20042;-47
2022/01/21 07:02:54;;;;;;;6.10;1.40;;;;;;;-1.75;72.30;102217.63;5007377;28;20033;-47
2022/01/21 07:05:22;;;;;;;6.25;0.80;;;;;;;-1.75;72.53;102212.34;5006557;28;20491;-47
2022/01/21 07:07:48;;;;;;;4.50;1.25;;;;;;;-1.80;72.50;102209.28;5007979;28;20025;-48
2022/01/21 07:10:15;;;;;;;3.13;1.20;;;;;;;-1.83;72.53;102215.63;5006031;28;20033;-47
2022/01/21 07:12:41;;;;;;;2.90;0.98;;;;;;;-1.82;72.54;102219.91;5007683;28;20108;-47
2022/01/21 07:15:09;;;;;;;5.45;1.00;;;;;;;-1.81;72.58;102220.75;5005890;28;20100;-47
2022/01/21 07:17:35;;;;;;;5.57;2.28;;;;;;;-1.78;72.78;102220.50;5007789;28;20033;-47
2022/01/21 07:20:01;;;;;;;5.07;1.25;;;;;;;-1.83;72.89;102225.31;5005701;28;20033;-47
2022/01/21 07:22:26;;;;;;;1.33;1.17;;;;;;;-1.85;73.38;102220.19;5007242;28;20212;-47
2022/01/21 07:24:52;;;;;;;7.10;1.27;;;;;;;-1.90;73.48;102218.91;5005840;28;20151;-47
2022/01/21 07:27:17;;;;;;;1.60;0.90;;;;;;;-1.86;73.31;102223.78;5008117;28;20022;-47
2022/01/21 07:29:43;;;;;;;6.65;1.83;;;;;;;-1.92;73.38;102229.56;5006794;28;20057;-47
2022/01/21 07:32:09;;;;;;;6.88;1.10;;;;;;;-1.92;73.52;102229.56;5007863;28;20041;-47
2022/01/21 07:34:35;;;;;;;6.80;1.20;;;;;;;-1.88;73.50;102238.00;5002713;28;20213;-47
2022/01/21 07:37:01;;;;;;;5.15;1.40;;;;;;;-1.94;74.06;102242.00;5003532;28;20501;-47
2022/01/21 07:39:27;;;;;;;8.95;1.35;;;;;;;-1.84;73.32;102242.03;5005135;28;20029;-47
2022/01/21 07:41:53;;;;;;;2.75;1.25;;;;;;;-1.88;73.72;102251.97;5005308;28;20034;-47
2022/01/21 07:44:19;;;;;;;3.72;1.20;;;;;;;-1.85;73.62;102258.75;5005231;28;20549;-47
2022/01/21 07:46:45;;;;;;;4.25;0.90;;;;;;;-1.87;74.02;102247.56;5002956;28;20029;-50
2022/01/21 07:49:11;;;;;;;3.20;0.88;;;;;;;-1.85;73.74;102250.88;5005127;28;20048;-47
2022/01/21 07:51:37;;;;;;;3.33;1.10;;;;;;;-1.89;73.95;102257.38;5004138;28;20491;-48
2022/01/21 07:54:04;;;;;;;5.10;1.00;;;;;;;-1.80;73.76;102261.00;5001512;28;20022;-47
2022/01/21 07:56:33;;;;;;;6.18;1.02;;;;;;;-1.74;73.81;102253.44;5002274;28;20040;-47
2022/01/21 07:58:59;;;;;;;6.03;1.40;;;;;;;-1.72;73.87;102250.69;5003768;28;20130;-47
2022/01/21 08:01:25;;;;;;;2.47;1.30;;;;;;;-1.62;73.69;102262.88;5001687;28;20065;-47
2022/01/21 08:03:51;;;;;;;3.22;1.08;;;;;;;-1.66;73.83;102272.00;5002727;28;20116;-49
2022/01/21 08:06:16;;;;;;;3.35;1.40;;;;;;;-1.57;73.45;102271.22;5004764;28;20030;-47
2022/01/21 08:08:42;;;;;;;5.40;1.55;;;;;;;-1.52;73.39;102274.28;5006923;28;20026;-47
2022/01/21 08:11:07;;;;;;;3.42;1.23;;;;;;;-1.50;73.51;102275.94;5007138;28;20548;-47
2022/01/21 08:13:33;;;;;;;6.32;1.38;;;;;;;-1.45;73.53;102268.47;5005522;28;20033;-48
2022/01/21 08:15:59;;;;;;;5.97;1.40;;;;;;;-1.45;73.76;102263.22;5007353;28;20533;-47
2022/01/21 08:18:25;;;;;;;4.20;1.50;;;;;;;-1.47;73.30;102273.06;5002203;28;20021;-49
2022/01/21 08:20:51;;;;;;;3.13;1.17;;;;;;;-1.47;73.46;102271.25;5008557;28;20038;-47
2022/01/21 08:23:17;;;;;;;3.05;1.35;;;;;;;-1.47;73.80;102270.41;5010059;28;20033;-47
2022/01/21 08:25:43;;;;;;;4.07;0.90;;;;;;;-1.27;73.46;102272.97;5009803;28;20542;-46
2022/01/21 08:28:08;;;;;;;6.47;1.02;;;;;;;-1.24;73.25;102271.91;5009019;28;20033;-47
2022/01/21 08:30:35;;;;;;;2.15;0.80;;;;;;;-1.17;72.93;102273.03;5009466;28;20021;-47
2022/01/21 08:33:01;;;;;;;3.63;0.90;;;;;;;-1.05;72.70;102273.75;5010558;28;20087;-47
2022/01/21 08:35:27;;;;;;;11.00;1.30;;;;;;;-0.99;72.51;102281.94;5009372;28;20029;-48
2022/01/21 08:37:53;;;;;;;5.47;1.17;;;;;;;-0.86;72.44;102280.88;5004943;28;20396;-47
2022/01/21 08:40:21;;;;;;;5.97;1.00;;;;;;;-0.73;71.90;102279.63;5009667;28;20038;-47
2022/01/21 08:42:46;;;;;;;4.68;1.42;;;;;;;-0.65;71.66;102278.94;5010214;28;20447;-47
2022/01/21 08:45:13;;;;;;;9.98;1.25;;;;;;;-0.57;71.66;102281.72;5007924;28;20037;-47
2022/01/21 08:47:41;;;;;;;12.52;1.20;;;;;;;-0.54;71.25;102281.44;5008113;28;20545;-47
2022/01/21 08:50:10;;;;;;;2.80;1.88;;;;;;;-0.64;71.27;102281.44;5007410;28;20053;-47
2022/01/21 08:52:40;;;;;;;3.90;1.02;;;;;;;-0.69;71.20;102282.84;5010154;28;20026;-47
2022/01/21 08:55:08;;;;;;;4.60;0.88;;;;;;;-0.80;71.28;102285.56;5007020;28;20037;-48
2022/01/21 08:57:36;;;;;;;3.88;1.88;;;;;;;-0.76;71.46;102289.59;5007034;28;20108;-48
2022/01/21 09:00:05;;;;;;;5.68;1.13;;;;;;;-0.77;71.78;102280.03;5007691;28;20438;-47
2022/01/21 09:02:31;;;;;;;3.25;1.17;;;;;;;-0.66;71.93;102282.56;5009124;28;20117;-48
2022/01/21 09:04:56;;;;;;;2.15;1.02;;;;;;;-0.53;71.67;102293.66;5008461;28;20112;-47
2022/01/21 09:07:22;;;;;;;5.13;1.40;;;;;;;-0.42;71.59;102284.78;5009931;28;20017;-47
2022/01/21 09:09:48;;;;;;;5.13;1.13;;;;;;;-0.35;71.07;102273.56;5008913;28;20112;-47
2022/01/21 09:12:13;;;;;;;10.15;2.00;;;;;;;-0.25;71.16;102289.34;5009573;28;20060;-47
2022/01/21 09:14:39;;;;;;;4.30;1.25;;;;;;;-0.17;71.06;102280.75;5009310;28;20072;-47
2022/01/21 09:17:04;;;;;;;4.43;1.13;;;;;;;-0.05;70.61;102277.81;5008628;28;20387;-47
2022/01/21 09:19:31;;;;;;;4.63;1.23;;;;;;;0.05;70.60;102277.81;5008543;28;20176;-47
2022/01/21 09:21:57;;;;;;;3.45;1.13;;;;;;;0.10;70.25;102277.38;5008606;28;20038;-47
2022/01/21 09:24:22;;;;;;;6.40;1.20;;;;;;;0.24;70.16;102271.66;5009013;28;20017;-47
2022/01/21 09:26:49;;;;;;;7.25;1.15;;;;;;;0.29;69.89;102267.63;5009145;28;20041;-47
2022/01/21 09:29:15;;;;;;;4.55;1.00;;;;;;;0.45;70.01;102268.81;5008462;28;20355;-47
2022/01/21 09:31:41;;;;;;;6.55;1.38;;;;;;;0.52;69.72;102259.34;5009835;28;20033;-47
2022/01/21 09:34:06;;;;;;;2.90;1.08;;;;;;;0.59;69.52;102260.44;5009442;28;20030;-47
2022/01/21 09:36:33;;;;;;;7.10;1.30;;;;;;;0.64;69.21;102268.72;5008586;28;20024;-47
2022/01/21 09:39:00;;;;;;;4.93;1.45;;;;;;;0.75;69.26;102268.56;5009040;28;20030;-47
2022/01/21 09:41:28;;;;;;;4.47;1.00;;;;;;;0.79;69.14;102272.56;5009584;28;20037;-47
2022/01/21 09:43:54;;;;;;;8.45;1.52;;;;;;;0.95;69.19;102268.44;5008543;28;20515;-47
2022/01/21 09:46:27;;;;;;;4.97;0.93;;;;;;;1.00;68.76;102274.09;5008613;28;20341;-47
2022/01/21 09:49:06;;;;;;;5.68;1.20;;;;;;;1.00;68.54;102274.94;5008518;28;20033;-48
2022/01/21 09:51:32;;;;;;;4.38;1.60;;;;;;;1.02;68.54;102285.34;5007228;28;20353;-47
2022/01/21 09:54:01;;;;;;;6.63;2.15;;;;;;;1.03;68.66;102284.38;5008839;28;20036;-48
2022/01/21 09:56:27;;;;;;;4.63;1.13;;;;;;;1.09;68.59;102283.78;5005570;28;20034;-47
2022/01/21 09:58:53;;;;;;;4.20;1.10;;;;;;;1.11;68.54;102284.47;5007329;28;20021;-47
2022/01/21 10:01:19;;;;;;;3.90;1.00;;;;;;;1.17;68.47;102295.25;5008041;28;20065;-47
2022/01/21 10:03:45;;;;;;;14.45;2.17;;;;;;;1.13;68.36;102288.63;5008009;28;20066;-47
2022/01/21 10:06:12;;;;;;;4.47;0.95;;;;;;;1.10;68.24;102290.72;5007997;28;20223;-47
2022/01/21 10:08:41;;;;;;;4.20;1.00;;;;;;;1.04;68.06;102289.50;5008757;28;20195;-48
2022/01/21 10:11:08;;;;;;;3.67;0.90;;;;;;;1.08;68.47;102288.25;5007507;28;20476;-47
2022/01/21 10:13:35;;;;;;;1.27;0.70;;;;;;;1.11;68.25;102305.59;5007794;28;20038;-48
2022/01/21 10:16:09;;;;;;;4.43;0.93;;;;;;;1.07;68.43;102285.72;5006979;28;20409;-47
2022/01/21 10:18:36;;;;;;;3.27;0.80;;;;;;;1.12;68.33;102289.59;5007049;28;20088;-47
2022/01/21 10:21:12;;;;;;;2.92;1.00;;;;;;;1.08;68.34;102295.34;5008497;28;20112;-47
2022/01/21 10:23:42;;;;;;;4.47;1.13;;;;;;;1.18;68.23;102304.00;5005923;28;20495;-47
2022/01/21 10:26:13;;;;;;;7.20;1.15;;;;;;;1.14;68.29;102302.66;5007106;28;20033;-48
2022/01/21 10:28:44;;;;;;;3.67;0.85;;;;;;;1.13;68.09;102301.00;5006825;28;20049;-47
2022/01/21 10:31:16;;;;;;;7.25;1.45;;;;;;;1.18;68.23;102294.28;5007135;28;20037;-47
2022/01/21 10:33:45;;;;;;;3.45;1.33;;;;;;;1.15;68.35;102291.09;5009816;28;20156;-47
2022/01/21 10:36:25;;;;;;;6.75;2.10;;;;;;;1.20;68.37;102308.16;5007190;28;20037;-47
2022/01/21 10:38:54;;;;;;;8.80;1.27;;;;;;;1.21;68.18;102304.53;5007406;28;20036;-47
2022/01/21 10:41:21;;;;;;;1.90;1.00;;;;;;;1.22;68.20;102300.09;5007007;28;20096;-47
2022/01/21 10:44:07;;;;;;;5.72;1.20;;;;;;;1.28;68.11;102299.50;5003833;28;20038;-48
2022/01/21 10:46:33;;;;;;;3.58;1.73;;;;;;;1.39;68.24;102316.94;5007884;28;20382;-47
2022/01/21 10:49:00;;;;;;;10.00;1.10;;;;;;;1.39;68.01;102309.84;5005082;28;20033;-48
2022/01/21 10:51:30;;;;;;;8.90;1.42;;;;;;;1.40;67.82;102303.56;5005742;28;20033;-48
2022/01/21 10:53:57;;;;;;;4.85;1.00;;;;;;;1.43;67.92;102299.78;5006134;28;20025;-48
2022/01/21 10:56:24;;;;;;;4.07;1.10;;;;;;;1.33;67.56;102299.88;5006064;28;20033;-47
2022/01/21 10:58:52;;;;;;;10.35;1.60;;;;;;;1.42;67.78;102296.31;5004752;28;20017;-47
2022/01/21 11:01:24;;;;;;;3.58;1.20;;;;;;;1.54;68.02;102288.19;5005803;28;20160;-50
2022/01/21 11:03:57;;;;;;;3.53;1.27;;;;;;;1.67;67.50;102284.19;5006082;28;20120;-50
2022/01/21 11:06:28;;;;;;;3.90;1.23;;;;;;;1.78;67.15;102286.59;5004265;28;20030;-48
2022/01/21 11:09:17;;;;;;;6.15;1.10;;;;;;;2.04;66.72;102277.88;5005858;28;20026;-49
2022/01/21 11:11:48;;;;;;;8.50;1.27;;;;;;;2.24;65.92;102281.97;5005464;28;20048;-50
2022/01/21 11:14:16;;;;;;;4.15;0.90;;;;;;;2.28;65.87;102267.44;5005442;28;20037;-48
2022/01/21 11:16:46;;;;;;;3.80;1.27;;;;;;;2.23;65.03;102271.56;5006870;28;20024;-47
2022/01/21 11:19:16;;;;;;;9.07;1.23;;;;;;;2.26;65.47;102276.53;5004783;28;20369;-47
2022/01/21 11:21:53;;;;;;;3.53;0.90;;;;;;;2.41;64.83;102282.91;5006339;28;20045;-47
2022/01/21 11:24:21;;;;;;;5.35;1.80;;;;;;;2.59;64.35;102281.00;5004971;28;20057;-48
2022/01/21 11:27:06;;;;;;;4.65;0.90;;;;;;;2.50;63.55;102276.66;5005942;28;20034;-48
2022/01/21 11:29:33;;;;;;;3.42;1.10;;;;;;;2.39;64.01;102283.06;5004049;28;20037;-47
2022/01/21 11:31:58;;;;;;;6.85;1.08;;;;;;;2.34;64.48;102282.72;5004853;28;20554;-47
2022/01/21 11:34:24;;;;;;;3.80;1.58;;;;;;;2.21;64.15;102281.47;5007217;28;20128;-47
2022/01/21 11:36:50;;;;;;;4.07;1.60;;;;;;;2.15;64.15;102279.41;5005104;28;20082;-47
2022/01/21 11:39:21;;;;;;;2.10;1.23;;;;;;;2.10;64.46;102279.88;5006211;28;20029;-48
2022/01/21 11:41:50;;;;;;;4.45;1.50;;;;;;;2.02;64.16;102278.03;5009160;28;20049;-49
2022/01/21 11:44:20;;;;;;;5.60;1.30;;;;;;;1.99;64.25;102273.06;5010139;28;20087;-49
2022/01/21 11:47:00;;;;;;;4.95;1.52;;;;;;;2.18;64.44;102271.19;5008164;28;20247;-48
2022/01/21 11:49:28;;;;;;;3.90;1.05;;;;;;;2.60;63.46;102272.09;5009582;28;20045;-48
2022/01/21 11:52:12;;;;;;;5.30;1.30;;;;;;;2.68;62.66;102264.16;5009591;28;20055;-49
2022/01/21 11:54:38;;;;;;;5.90;1.20;;;;;;;2.49;62.42;102259.13;5009532;28;20029;-47
2022/01/21 11:57:06;;;;;;;4.38;1.40;;;;;;;2.39;62.74;102269.00;5009534;28;20037;-47
2022/01/21 11:59:37;;;;;;;3.80;1.25;;;;;;;2.66;62.91;102254.72;5006924;28;20269;-47
2022/01/21 12:02:27;;;;;;;2.55;1.10;;;;;;;2.98;62.16;102254.84;5009127;28;20087;-47
2022/01/21 12:04:54;;;;;;;3.30;1.38;;;;;;;3.27;60.76;102257.09;5005056;28;20105;-48
2022/01/21 12:07:34;;;;;;;10.75;1.60;;;;;;;3.50;60.11;102251.13;5009609;28;20120;-48
2022/01/21 12:10:29;;;;;;;5.80;1.15;;;;;;;3.69;59.95;102244.69;5008426;28;20284;-51
2022/01/21 12:13:03;;;;;;;3.88;1.02;;;;;;;3.82;59.04;102245.84;5006269;28;20369;-47
2022/01/21 12:15:37;;;;;;;4.97;1.38;;;;;;;3.98;58.96;102246.81;5021715;28;20462;-49